createdAt,value
2017-11-20T00:00:32.897Z,101145.44
2017-11-20T00:03:00.570Z,101143.80
2017-11-20T00:05:28.212Z,101143.72
2017-11-20T00:07:55.883Z,101144.33
2017-11-20T00:10:23.524Z,101139.06
2017-11-20T00:12:51.199Z,101143.19
2017-11-20T00:15:18.838Z,101140.62
2017-11-20T00:17:46.534Z,101136.42
2017-11-20T00:20:14.189Z,101136.61
2017-11-20T00:22:41.864Z,101136.02
2017-11-20T00:25:09.511Z,101131.44
2017-11-20T00:27:37.196Z,101129.09
2017-11-20T00:30:04.865Z,101134.26
2017-11-20T00:32:32.552Z,101114.55
2017-11-20T00:35:00.186Z,101118.31
2017-11-20T00:37:27.869Z,101115.59
2017-11-20T00:39:55.555Z,101112.98
2017-11-20T00:42:23.228Z,101120.81
2017-11-20T00:44:50.919Z,101115.83
2017-11-20T00:47:18.554Z,101115.41
2017-11-20T00:49:46.230Z,101109.80
2017-11-20T00:52:13.917Z,101111.20
2017-11-20T00:54:41.598Z,101116.58
2017-11-20T00:57:09.251Z,101120.22
2017-11-20T00:59:36.939Z,101124.02
2017-11-20T01:02:04.567Z,101122.70
2017-11-20T01:04:32.253Z,101135.55
2017-11-20T01:06:59.900Z,101130.83
2017-11-20T01:09:27.593Z,101125.00
2017-11-20T01:11:55.227Z,101121.37
2017-11-20T01:14:22.929Z,101133.68
2017-11-20T01:16:50.576Z,101122.31
2017-11-20T01:19:18.292Z,101131.01
2017-11-20T01:21:45.956Z,101126.02
2017-11-20T01:24:13.612Z,101131.61
2017-11-20T01:26:41.328Z,101124.94
2017-11-20T01:29:08.983Z,101132.16
2017-11-20T01:31:36.661Z,101133.07
2017-11-20T01:34:04.370Z,101123.82
2017-11-20T01:36:32.060Z,101123.47
2017-11-20T01:38:59.721Z,101127.05
2017-11-20T01:41:27.616Z,101123.50
2017-11-20T01:43:55.270Z,101120.92
2017-11-20T01:46:22.958Z,101113.38
2017-11-20T01:48:50.607Z,101115.86
2017-11-20T01:51:18.352Z,101121.34
2017-11-20T01:53:46.013Z,101115.56
2017-11-20T01:56:13.695Z,101125.95
2017-11-20T01:58:41.369Z,101123.39
2017-11-20T02:01:09.063Z,101118.02
2017-11-20T02:03:36.732Z,101123.81
2017-11-20T02:06:04.421Z,101125.36
2017-11-20T02:08:32.064Z,101120.30
2017-11-20T02:10:59.745Z,101122.69
2017-11-20T02:13:27.415Z,101122.44
2017-11-20T02:15:55.123Z,101123.98
2017-11-20T02:18:22.783Z,101136.60
2017-11-20T02:20:50.481Z,101127.94
2017-11-20T02:23:18.149Z,101126.00
2017-11-20T02:25:45.828Z,101129.36
2017-11-20T02:28:13.505Z,101125.63
2017-11-20T02:30:41.153Z,101127.30
2017-11-20T02:33:08.834Z,101129.38
2017-11-20T02:35:36.479Z,101134.47
2017-11-20T02:38:04.181Z,101131.55
2017-11-20T02:40:31.815Z,101133.88
2017-11-20T02:42:59.497Z,101137.44
2017-11-20T02:45:27.147Z,101138.40
2017-11-20T02:47:54.835Z,101141.54
2017-11-20T02:50:22.479Z,101138.67
2017-11-20T02:52:50.196Z,101132.74
2017-11-20T02:55:17.865Z,101140.15
2017-11-20T02:57:45.572Z,101134.05
2017-11-20T03:00:13.235Z,101132.23
2017-11-20T03:02:40.927Z,101133.42
2017-11-20T03:05:08.563Z,101137.81
2017-11-20T03:07:36.249Z,101137.69
2017-11-20T03:10:03.906Z,101145.00
2017-11-20T03:12:31.579Z,101148.97
2017-11-20T03:14:59.903Z,101147.61
2017-11-20T03:17:27.574Z,101145.83
2017-11-20T03:19:55.224Z,101146.67
2017-11-20T03:22:22.909Z,101137.73
2017-11-20T03:24:50.579Z,101131.69
2017-11-20T03:27:18.239Z,101134.77
2017-11-20T03:29:45.937Z,101151.06
2017-11-20T03:32:13.593Z,101140.20
2017-11-20T03:34:41.273Z,101138.42
2017-11-20T03:37:08.948Z,101127.70
2017-11-20T03:39:36.657Z,101124.95
2017-11-20T03:42:04.304Z,101112.69
2017-11-20T03:44:31.988Z,101112.23
2017-11-20T03:46:59.632Z,101117.91
2017-11-20T03:49:27.330Z,101117.73
2017-11-20T03:51:55.009Z,101115.31
2017-11-20T03:54:22.718Z,101117.66
2017-11-20T03:56:50.373Z,101117.77
2017-11-20T03:59:18.048Z,101130.16
2017-11-20T04:01:45.705Z,101127.20
2017-11-20T04:04:13.393Z,101132.81
2017-11-20T04:06:41.033Z,101136.75
2017-11-20T04:09:08.711Z,101131.43
2017-11-20T04:11:36.365Z,101130.72
2017-11-20T04:14:04.057Z,101137.55
2017-11-20T04:16:31.697Z,101136.41
2017-11-20T04:18:59.380Z,101138.72
2017-11-20T04:21:27.021Z,101140.89
2017-11-20T04:23:54.713Z,101138.64
2017-11-20T04:26:22.367Z,101143.61
2017-11-20T04:28:50.014Z,101138.20
2017-11-20T04:31:17.733Z,101137.88
2017-11-20T04:33:45.420Z,101137.63
2017-11-20T04:36:13.167Z,101147.26
2017-11-20T04:38:40.798Z,101152.34
2017-11-20T04:41:08.496Z,101150.80
2017-11-20T04:43:36.160Z,101149.13
2017-11-20T04:46:03.838Z,101146.13
2017-11-20T04:48:31.488Z,101144.09
2017-11-20T04:50:59.243Z,101147.11
2017-11-20T04:53:26.981Z,101150.41
2017-11-20T04:55:54.774Z,101150.09
2017-11-20T04:58:22.416Z,101153.52
2017-11-20T05:00:50.143Z,101160.12
2017-11-20T05:03:17.796Z,101151.72
2017-11-20T05:05:45.495Z,101159.44
2017-11-20T05:08:13.144Z,101156.83
2017-11-20T05:10:40.825Z,101164.88
2017-11-20T05:13:08.463Z,101170.17
2017-11-20T05:15:37.087Z,101171.47
2017-11-20T05:18:04.734Z,101169.86
2017-11-20T05:20:32.420Z,101176.59
2017-11-20T05:23:00.027Z,101176.28
2017-11-20T05:25:27.688Z,101174.05
2017-11-20T05:27:55.376Z,101177.05
2017-11-20T05:30:23.016Z,101171.50
2017-11-20T05:32:50.703Z,101171.59
2017-11-20T05:35:18.344Z,101177.74
2017-11-20T05:37:46.074Z,101174.67
2017-11-20T05:40:13.722Z,101177.08
2017-11-20T05:42:41.426Z,101185.58
2017-11-20T05:45:09.074Z,101177.96
2017-11-20T05:47:36.758Z,101182.58
2017-11-20T05:50:04.428Z,101184.34
2017-11-20T05:52:35.222Z,101183.48
2017-11-20T05:55:02.893Z,101183.72
2017-11-20T05:57:30.597Z,101179.55
2017-11-20T05:59:58.262Z,101188.24
2017-11-20T06:02:25.961Z,101190.01
2017-11-20T06:04:53.619Z,101187.08
2017-11-20T06:07:21.322Z,101189.77
2017-11-20T06:09:48.972Z,101200.68
2017-11-20T06:12:16.658Z,101198.86
2017-11-20T06:14:44.353Z,101200.50
2017-11-20T06:17:12.010Z,101199.28
2017-11-20T06:19:39.721Z,101201.31
2017-11-20T06:22:07.398Z,101208.84
2017-11-20T06:24:35.110Z,101202.59
2017-11-20T06:27:02.747Z,101206.87
2017-11-20T06:29:30.436Z,101204.78
2017-11-20T06:31:58.113Z,101206.42
2017-11-20T06:34:25.803Z,101219.19
2017-11-20T06:36:53.451Z,101220.98
2017-11-20T06:39:21.194Z,101222.32
2017-11-20T06:41:48.791Z,101227.10
2017-11-20T06:44:16.510Z,101227.91
2017-11-20T06:46:44.157Z,101226.41
2017-11-20T06:49:11.865Z,101227.10
2017-11-20T06:51:39.577Z,101231.91
2017-11-20T06:54:07.280Z,101226.56
2017-11-20T06:56:34.949Z,101224.41
2017-11-20T06:59:02.638Z,101222.30
2017-11-20T07:01:30.322Z,101219.09
2017-11-20T07:03:58.021Z,101226.34
2017-11-20T07:06:25.698Z,101222.56
2017-11-20T07:08:53.351Z,101236.38
2017-11-20T07:11:21.037Z,101234.80
2017-11-20T07:13:48.697Z,101227.82
2017-11-20T07:16:16.405Z,101227.16
2017-11-20T07:18:44.068Z,101226.50
2017-11-20T07:21:11.762Z,101228.69
2017-11-20T07:23:39.441Z,101230.60
2017-11-20T07:26:18.938Z,101238.68
2017-11-20T07:28:58.384Z,101233.20
2017-11-20T07:31:28.935Z,101231.16
2017-11-20T07:34:08.138Z,101235.08
2017-11-20T07:36:47.553Z,101235.38
2017-11-20T07:39:34.778Z,101229.03
2017-11-20T07:42:02.500Z,101229.45
2017-11-20T07:44:30.154Z,101229.87
2017-11-20T07:46:57.854Z,101234.59
2017-11-20T07:49:25.497Z,101236.98
2017-11-20T07:51:53.248Z,101233.20
2017-11-20T07:54:20.903Z,101234.80
2017-11-20T07:56:48.585Z,101243.22
2017-11-20T07:59:16.236Z,101238.03
2017-11-20T08:01:43.944Z,101242.22
2017-11-20T08:04:11.593Z,101235.91
2017-11-20T08:06:39.271Z,101234.72
2017-11-20T08:09:07.805Z,101235.12
2017-11-20T08:11:35.487Z,101240.16
2017-11-20T08:14:03.078Z,101244.42
2017-11-20T08:16:31.790Z,101239.67
2017-11-20T08:18:59.456Z,101244.47
2017-11-20T08:21:27.104Z,101251.13
2017-11-20T08:23:54.790Z,101247.98
2017-11-20T08:26:22.456Z,101245.66
2017-11-20T08:28:50.154Z,101245.96
2017-11-20T08:31:17.797Z,101252.20
2017-11-20T08:33:45.485Z,101241.99
2017-11-20T08:36:13.152Z,101254.59
2017-11-20T08:38:40.865Z,101247.27
2017-11-20T08:41:08.507Z,101244.94
2017-11-20T08:43:36.206Z,101248.53
2017-11-20T08:46:03.856Z,101249.38
2017-11-20T08:48:31.543Z,101257.39
2017-11-20T08:50:59.208Z,101247.20
2017-11-20T08:53:26.930Z,101246.55
2017-11-20T08:55:54.544Z,101246.28
2017-11-20T08:58:22.240Z,101244.63
2017-11-20T09:00:49.908Z,101240.79
2017-11-20T09:03:17.609Z,101253.23
2017-11-20T09:05:45.282Z,101244.66
2017-11-20T09:08:12.891Z,101242.32
2017-11-20T09:10:40.589Z,101236.09
2017-11-20T09:13:08.273Z,101241.20
2017-11-20T09:15:35.969Z,101244.39
2017-11-20T09:18:03.650Z,101243.72
2017-11-20T09:20:31.370Z,101236.40
2017-11-20T09:22:59.047Z,101239.42
2017-11-20T09:25:26.730Z,101232.51
2017-11-20T09:27:54.390Z,101237.78
2017-11-20T09:30:22.137Z,101236.52
2017-11-20T09:32:49.799Z,101238.86
2017-11-20T09:35:17.572Z,101249.11
2017-11-20T09:37:45.224Z,101245.92
2017-11-20T09:40:12.905Z,101248.40
2017-11-20T09:42:40.556Z,101252.42
2017-11-20T09:45:08.248Z,101250.08
2017-11-20T09:47:35.871Z,101247.45
2017-11-20T09:50:03.541Z,101241.50
2017-11-20T09:52:31.175Z,101243.57
2017-11-20T09:54:58.836Z,101235.57
2017-11-20T09:57:26.508Z,101237.08
2017-11-20T09:59:54.154Z,101240.97
2017-11-20T10:02:21.863Z,101234.73
2017-11-20T10:04:49.524Z,101230.47
2017-11-20T10:07:17.230Z,101237.66
2017-11-20T10:09:44.885Z,101238.92
2017-11-20T10:12:12.625Z,101242.23
2017-11-20T10:14:40.276Z,101239.47
2017-11-20T10:17:08.009Z,101234.36
2017-11-20T10:19:35.664Z,101232.68
2017-11-20T10:22:03.360Z,101233.27
2017-11-20T10:24:31.028Z,101234.77
2017-11-20T10:26:58.752Z,101235.19
2017-11-20T10:29:26.426Z,101228.27
2017-11-20T10:31:54.148Z,101226.31
2017-11-20T10:34:21.799Z,101228.39
2017-11-20T10:36:49.536Z,101227.26
2017-11-20T10:39:17.136Z,101217.02
2017-11-20T10:41:44.876Z,101215.33
2017-11-20T10:44:12.573Z,101219.19
2017-11-20T10:46:40.236Z,101212.50
2017-11-20T10:49:07.955Z,101224.92
2017-11-20T10:51:36.479Z,101222.39
2017-11-20T10:54:04.236Z,101220.33
2017-11-20T10:56:31.916Z,101222.44
2017-11-20T10:58:59.607Z,101201.92
2017-11-20T11:01:27.253Z,101208.72
2017-11-20T11:03:54.946Z,101209.94
2017-11-20T11:06:22.634Z,101209.13
2017-11-20T11:08:50.355Z,101203.86
2017-11-20T11:11:18.030Z,101206.63
2017-11-20T11:13:45.760Z,101202.78
2017-11-20T11:16:13.416Z,101206.09
2017-11-20T11:18:41.127Z,101203.73
2017-11-20T11:21:08.795Z,101208.98
2017-11-20T11:23:36.631Z,101215.08
2017-11-20T11:26:04.338Z,101208.28
2017-11-20T11:28:32.076Z,101210.65
2017-11-20T11:30:59.738Z,101204.72
2017-11-20T11:33:27.460Z,101210.55
2017-11-20T11:35:55.155Z,101203.08
2017-11-20T11:38:22.869Z,101207.36
2017-11-20T11:40:50.534Z,101202.48
2017-11-20T11:43:18.307Z,101203.84
2017-11-20T11:45:45.990Z,101200.66
2017-11-20T11:48:13.672Z,101196.09
2017-11-20T11:50:41.370Z,101198.73
2017-11-20T11:53:09.902Z,101205.97
2017-11-20T11:55:37.604Z,101196.86
2017-11-20T11:58:05.276Z,101198.25
2017-11-20T12:00:32.966Z,101195.39
2017-11-20T12:03:00.585Z,101194.30
2017-11-20T12:05:28.287Z,101199.25
2017-11-20T12:07:55.951Z,101192.91
2017-11-20T12:10:23.674Z,101189.02
2017-11-20T12:12:51.335Z,101195.26
2017-11-20T12:15:19.042Z,101195.38
2017-11-20T12:17:47.406Z,101193.28
2017-11-20T12:20:15.122Z,101186.93
2017-11-20T12:22:42.799Z,101186.21
2017-11-20T12:25:10.510Z,101176.09
2017-11-20T12:27:38.184Z,101181.08
2017-11-20T12:30:05.967Z,101185.36
2017-11-20T12:32:33.638Z,101172.91
2017-11-20T12:35:01.338Z,101184.83
2017-11-20T12:37:29.036Z,101178.20
2017-11-20T12:39:56.699Z,101176.65
2017-11-20T12:42:24.381Z,101176.52
2017-11-20T12:44:52.037Z,101176.52
2017-11-20T12:47:19.738Z,101176.52
2017-11-20T12:49:47.451Z,101177.34
2017-11-20T12:52:15.178Z,101176.39
2017-11-20T12:54:42.843Z,101173.64
2017-11-20T12:57:10.544Z,101180.13
2017-11-20T12:59:38.220Z,101181.11
2017-11-20T13:02:05.941Z,101170.59
2017-11-20T13:04:33.613Z,101172.70
2017-11-20T13:07:01.344Z,101166.35
2017-11-20T13:09:29.007Z,101169.41
2017-11-20T13:11:56.743Z,101163.33
2017-11-20T13:14:24.424Z,101160.52
2017-11-20T13:16:52.130Z,101163.58
2017-11-20T13:19:19.850Z,101165.23
2017-11-20T13:21:47.562Z,101163.85
2017-11-20T13:24:15.258Z,101162.84
2017-11-20T13:26:42.980Z,101158.56
2017-11-20T13:29:10.647Z,101145.00
2017-11-20T13:31:38.304Z,101162.27
2017-11-20T13:34:06.004Z,101159.23
2017-11-20T13:36:33.719Z,101155.20
2017-11-20T13:39:01.407Z,101153.83
2017-11-20T13:41:29.073Z,101160.20
2017-11-20T13:43:56.778Z,101152.48
2017-11-20T13:46:24.519Z,101161.89
2017-11-20T13:48:52.304Z,101154.20
2017-11-20T13:51:20.060Z,101151.05
2017-11-20T13:53:47.765Z,101146.63
2017-11-20T13:56:15.438Z,101154.12
2017-11-20T13:58:43.147Z,101149.57
2017-11-20T14:01:10.828Z,101144.05
2017-11-20T14:03:38.598Z,101147.11
2017-11-20T14:06:26.764Z,101144.36
2017-11-20T14:08:54.515Z,101144.20
2017-11-20T14:11:22.202Z,101147.69
2017-11-20T14:13:49.899Z,101141.87
2017-11-20T14:16:17.603Z,101145.05
2017-11-20T14:18:46.123Z,101139.92
2017-11-20T14:21:13.782Z,101141.05
2017-11-20T14:23:41.475Z,101140.48
2017-11-20T14:26:09.186Z,101134.56
2017-11-20T14:28:36.858Z,101134.98
2017-11-20T14:31:04.580Z,101133.19
2017-11-20T14:33:32.286Z,101137.33
2017-11-20T14:35:59.981Z,101134.28
2017-11-20T14:38:27.672Z,101128.88
2017-11-20T14:40:55.422Z,101129.45
2017-11-20T14:43:23.118Z,101125.03
2017-11-20T14:45:50.857Z,101131.80
2017-11-20T14:48:20.123Z,101125.73
2017-11-20T14:50:47.851Z,101120.59
2017-11-20T14:53:37.408Z,101123.52
2017-11-20T14:56:05.110Z,101121.86
2017-11-20T14:58:32.784Z,101122.81
2017-11-20T15:01:00.488Z,101121.73
2017-11-20T15:03:28.165Z,101115.36
2017-11-20T15:05:55.927Z,101118.28
2017-11-20T15:08:23.651Z,101114.14
2017-11-20T15:10:52.295Z,101117.16
2017-11-20T15:13:19.988Z,101120.21
2017-11-20T15:15:47.636Z,101126.15
2017-11-20T15:18:15.333Z,101127.66
2017-11-20T15:20:43.077Z,101125.19
2017-11-20T15:23:10.883Z,101124.89
2017-11-20T15:25:38.601Z,101118.53
2017-11-20T15:28:06.320Z,101121.04
2017-11-20T15:30:34.032Z,101125.73
2017-11-20T15:33:01.739Z,101126.02
2017-11-20T15:35:29.432Z,101130.28
2017-11-20T15:37:57.144Z,101126.84
2017-11-20T15:40:24.831Z,101126.97
2017-11-20T15:42:52.513Z,101123.80
2017-11-20T15:45:20.159Z,101123.38
2017-11-20T15:47:47.863Z,101126.84
2017-11-20T15:50:15.529Z,101121.45
2017-11-20T15:52:43.274Z,101122.96
2017-11-20T15:55:10.979Z,101123.25
2017-11-20T15:57:38.661Z,101118.56
2017-11-20T16:00:07.199Z,101120.48
2017-11-20T16:02:34.897Z,101118.55
2017-11-20T16:05:02.576Z,101112.45
2017-11-20T16:07:30.302Z,101114.42
2017-11-20T16:09:57.974Z,101112.88
2017-11-20T16:12:25.639Z,101109.98
2017-11-20T16:14:53.327Z,101110.95
2017-11-20T16:17:20.999Z,101108.47
2017-11-20T16:19:48.695Z,101107.77
2017-11-20T16:22:16.358Z,101099.48
2017-11-20T16:24:44.064Z,101101.41
2017-11-20T16:27:11.733Z,101103.78
2017-11-20T16:29:39.436Z,101096.05
2017-11-20T16:32:07.031Z,101094.50
2017-11-20T16:34:34.756Z,101095.76
2017-11-20T16:37:02.461Z,101093.70
2017-11-20T16:39:30.167Z,101087.48
2017-11-20T16:41:57.859Z,101094.67
2017-11-20T16:44:25.602Z,101096.17
2017-11-20T16:46:53.264Z,101095.22
2017-11-20T16:49:20.963Z,101093.12
2017-11-20T16:51:48.693Z,101091.20
2017-11-20T16:54:16.418Z,101087.06
2017-11-20T16:57:04.804Z,101085.42
2017-11-20T16:59:37.282Z,101081.70
2017-11-20T17:02:30.456Z,101069.11
2017-11-20T17:04:58.179Z,101070.08
2017-11-20T17:07:25.865Z,101068.70
2017-11-20T17:09:53.554Z,101067.06
2017-11-20T17:12:21.227Z,101068.98
2017-11-20T17:14:48.938Z,101060.16
2017-11-20T17:17:16.617Z,101054.22
2017-11-20T17:19:44.312Z,101054.63
2017-11-20T17:22:11.989Z,101058.91
2017-11-20T17:24:39.687Z,101051.45
2017-11-20T17:27:07.358Z,101051.03
2017-11-20T17:29:35.015Z,101054.22
2017-11-20T17:32:02.718Z,101062.08
2017-11-20T17:34:30.388Z,101058.48
2017-11-20T17:36:58.092Z,101058.48
2017-11-20T17:39:25.754Z,101060.98
2017-11-20T17:41:53.481Z,101055.59
2017-11-20T17:44:21.145Z,101056.27
2017-11-20T17:46:48.788Z,101057.27
2017-11-20T17:49:16.448Z,101063.45
2017-11-20T17:51:44.172Z,101061.95
2017-11-20T17:54:11.794Z,101067.47
2017-11-20T17:56:39.499Z,101064.00
2017-11-20T17:59:07.186Z,101063.32
2017-11-20T18:01:35.164Z,101068.30
2017-11-20T18:04:02.759Z,101068.30
2017-11-20T18:06:30.402Z,101066.63
2017-11-20T18:08:58.053Z,101071.31
2017-11-20T18:11:25.675Z,101066.50
2017-11-20T18:13:53.308Z,101068.42
2017-11-20T18:16:20.987Z,101064.16
2017-11-20T18:18:48.739Z,101061.52
2017-11-20T18:21:16.409Z,101058.47
2017-11-20T18:23:44.143Z,101054.48
2017-11-20T18:26:11.754Z,101057.09
2017-11-20T18:28:39.454Z,101052.27
2017-11-20T18:31:07.152Z,101044.28
2017-11-20T18:33:34.884Z,101038.89
2017-11-20T18:36:02.584Z,101038.05
2017-11-20T18:38:30.237Z,101038.47
2017-11-20T18:40:57.896Z,101039.30
2017-11-20T18:43:25.586Z,101031.44
2017-11-20T18:45:53.210Z,101023.41
2017-11-20T18:48:20.865Z,101024.66
2017-11-20T18:50:48.516Z,101021.61
2017-11-20T18:53:16.234Z,101018.05
2017-11-20T18:55:43.950Z,101015.12
2017-11-20T18:58:11.633Z,101011.14
2017-11-20T19:00:50.998Z,101011.27
2017-11-20T19:03:37.079Z,101006.87
2017-11-20T19:09:12.546Z,100999.98
2017-11-20T19:11:40.182Z,101000.94
2017-11-20T19:14:07.854Z,100992.50
2017-11-20T19:16:35.542Z,101000.52
2017-11-20T19:19:03.224Z,100996.80
2017-11-20T19:21:30.953Z,100994.58
2017-11-20T19:23:58.694Z,100991.69
2017-11-20T19:26:26.402Z,100997.20
2017-11-20T19:28:54.109Z,100999.80
2017-11-20T19:31:21.818Z,100995.82
2017-11-20T19:33:49.509Z,100993.32
2017-11-20T19:36:17.219Z,100994.70
2017-11-20T19:38:44.821Z,100996.63
2017-11-20T19:41:12.525Z,100992.23
2017-11-20T19:43:40.203Z,100995.40
2017-11-20T19:46:07.911Z,100994.56
2017-11-20T19:48:35.595Z,100992.34
2017-11-20T19:51:03.252Z,100995.38
2017-11-20T19:53:30.954Z,100986.98
2017-11-20T19:55:58.594Z,100988.91
2017-11-20T19:58:26.292Z,100981.17
2017-11-20T20:00:53.976Z,100993.70
2017-11-20T20:03:21.626Z,100989.03
2017-11-20T20:05:49.330Z,100988.61
2017-11-20T20:08:17.013Z,100991.66
2017-11-20T20:10:44.730Z,100986.14
2017-11-20T20:13:12.395Z,100994.00
2017-11-20T20:18:39.306Z,100996.05
2017-11-20T20:21:07.009Z,100987.36
2017-11-20T20:23:34.672Z,100989.16
2017-11-20T20:26:02.348Z,100985.44
2017-11-20T20:28:30.060Z,100990.41
2017-11-20T20:30:57.723Z,100983.39
2017-11-20T20:33:25.437Z,100971.81
2017-11-20T20:35:53.111Z,100967.92
2017-11-20T20:38:20.819Z,100965.33
2017-11-20T20:40:48.475Z,100960.61
2017-11-20T20:43:16.170Z,100954.13
2017-11-20T20:45:43.862Z,100946.14
2017-11-20T20:48:11.564Z,100942.00
2017-11-20T20:50:39.233Z,100942.00
2017-11-20T20:53:06.989Z,100944.21
2017-11-20T20:55:34.652Z,100947.39
2017-11-20T20:58:02.376Z,100941.45
2017-11-20T21:00:30.049Z,100936.77
2017-11-20T21:02:57.760Z,100928.77
2017-11-20T21:05:25.419Z,100934.02
2017-11-20T21:07:53.127Z,100927.39
2017-11-20T21:10:26.335Z,100930.56
2017-11-20T21:12:54.034Z,100937.17
2017-11-20T21:15:21.723Z,100948.91
2017-11-20T21:17:49.410Z,100945.03
2017-11-20T21:20:17.103Z,100930.86
2017-11-20T21:22:44.785Z,100929.31
2017-11-20T21:25:12.479Z,100931.81
2017-11-20T21:27:40.137Z,100921.62
2017-11-20T21:30:07.843Z,100920.08
2017-11-20T21:32:35.507Z,100922.58
2017-11-20T21:35:03.231Z,100931.26
2017-11-20T21:37:30.887Z,100926.70
2017-11-20T21:39:58.522Z,100939.23
2017-11-20T21:42:26.164Z,100941.99
2017-11-20T21:44:53.844Z,100934.55
2017-11-20T21:47:21.513Z,100941.16
2017-11-20T21:49:49.165Z,100937.98
2017-11-20T21:52:16.799Z,100934.97
2017-11-20T21:54:44.462Z,100936.05
2017-11-20T21:57:12.070Z,100944.33
2017-11-20T21:59:39.738Z,100943.91
2017-11-20T22:02:07.457Z,100944.45
2017-11-20T22:04:35.130Z,100948.87
2017-11-20T22:07:02.838Z,100946.53
2017-11-20T22:09:30.529Z,100945.70
2017-11-20T22:11:58.227Z,100946.95
2017-11-20T22:14:25.892Z,100949.29
2017-11-20T22:16:53.590Z,100947.78
2017-11-20T22:19:21.257Z,100951.50
2017-11-20T22:21:48.954Z,100947.78
2017-11-20T22:24:16.612Z,100937.43
2017-11-20T22:26:44.320Z,100934.25
2017-11-20T22:29:12.000Z,100928.91
2017-11-20T22:31:39.656Z,100924.89
2017-11-20T22:34:07.323Z,100914.55
2017-11-20T22:36:35.029Z,100923.22
2017-11-20T22:39:02.687Z,100921.84
2017-11-20T22:41:30.876Z,100918.41
2017-11-20T22:43:58.539Z,100917.87
2017-11-20T22:46:26.196Z,100917.45
2017-11-20T22:48:53.834Z,100909.72
2017-11-20T22:51:21.516Z,100908.06
2017-11-20T22:53:49.255Z,100901.75
2017-11-20T22:56:16.868Z,100902.97
2017-11-20T22:58:44.581Z,100896.08
2017-11-20T23:01:12.262Z,100898.83
2017-11-20T23:03:40.048Z,100899.80
2017-11-20T23:06:07.735Z,100895.82
2017-11-20T23:08:35.368Z,100892.36
2017-11-20T23:11:03.042Z,100884.37
2017-11-20T23:13:30.755Z,100869.22
2017-11-20T23:15:58.423Z,100868.25
2017-11-20T23:18:26.157Z,100859.98
2017-11-20T23:20:53.828Z,100857.23
2017-11-20T23:23:21.485Z,100853.22
2017-11-20T23:25:49.178Z,100852.12
2017-11-20T23:28:16.851Z,100849.50
2017-11-20T23:30:44.564Z,100842.32
2017-11-20T23:33:12.217Z,100849.38
2017-11-20T23:35:39.933Z,100853.34
2017-11-20T23:38:07.609Z,100849.21
2017-11-20T23:40:35.244Z,100838.89
2017-11-20T23:43:02.908Z,100842.61
2017-11-20T23:45:31.121Z,100847.70
2017-11-20T23:47:58.771Z,100836.14
2017-11-20T23:50:26.468Z,100841.65
2017-11-20T23:52:54.169Z,100825.66
2017-11-20T23:55:21.868Z,100820.85
2017-11-20T23:57:49.541Z,100819.06
